sensor_id;sensor_type;location;lat;lon;timestamp;temperature;humidity
21298;DHT22;10808;48.010;11.326;2023-02-28T00:00:25;-1.50;99.90
21298;DHT22;10808;48.010;11.326;2023-02-28T00:02:52;-1.50;99.90
21298;DHT22;10808;48.010;11.326;2023-02-28T00:05:20;-1.50;99.90
21298;DHT22;10808;48.010;11.326;2023-02-28T00:07:47;-1.50;99.90
21298;DHT22;10808;48.010;11.326;2023-02-28T00:10:25;-1.40;99.90
21298;DHT22;10808;48.010;11.326;2023-02-28T00:12:53;-1.40;99.90
21298;DHT22;10808;48.010;11.326;2023-02-28T00:15:20;-1.40;99.90
21298;DHT22;10808;48.010;11.326;2023-02-28T00:17:48;-1.40;99.90
21298;DHT22;10808;48.010;11.326;2023-02-28T00:20:14;-1.40;99.90
21298;DHT22;10808;48.010;11.326;2023-02-28T00:22:43;-1.40;99.90
21298;DHT22;10808;48.010;11.326;2023-02-28T00:25:11;-1.40;99.90
21298;DHT22;10808;48.010;11.326;2023-02-28T00:27:38;-1.40;99.90
21298;DHT22;10808;48.010;11.326;2023-02-28T00:30:10;-1.50;99.90
21298;DHT22;10808;48.010;11.326;2023-02-28T00:32:36;-1.40;99.90
21298;DHT22;10808;48.010;11.326;2023-02-28T00:35:03;-1.50;99.90
21298;DHT22;10808;48.010;11.326;2023-02-28T00:37:29;-1.50;99.90
21298;DHT22;10808;48.010;11.326;2023-02-28T00:39:55;-1.50;99.90
21298;DHT22;10808;48.010;11.326;2023-02-28T00:42:21;-1.40;99.90
21298;DHT22;10808;48.010;11.326;2023-02-28T00:44:48;-1.50;99.90
21298;DHT22;10808;48.010;11.326;2023-02-28T00:47:13;-1.50;99.90
21298;DHT22;10808;48.010;11.326;2023-02-28T00:49:40;-1.50;99.90
21298;DHT22;10808;48.010;11.326;2023-02-28T00:52:06;-1.60;99.90
21298;DHT22;10808;48.010;11.326;2023-02-28T00:54:32;-1.60;99.90
21298;DHT22;10808;48.010;11.326;2023-02-28T00:56:58;-1.60;99.90
21298;DHT22;10808;48.010;11.326;2023-02-28T00:59:24;-1.60;99.90
21298;DHT22;10808;48.010;11.326;2023-02-28T01:01:51;-1.60;99.90
21298;DHT22;10808;48.010;11.326;2023-02-28T01:04:17;-1.60;99.90
21298;DHT22;10808;48.010;11.326;2023-02-28T01:06:43;-1.50;99.90
21298;DHT22;10808;48.010;11.326;2023-02-28T01:09:09;-1.50;99.90
21298;DHT22;10808;48.010;11.326;2023-02-28T01:11:35;-1.50;99.90
21298;DHT22;10808;48.010;11.326;2023-02-28T01:14:02;-1.50;99.90
21298;DHT22;10808;48.010;11.326;2023-02-28T01:16:30;-1.50;99.90
21298;DHT22;10808;48.010;11.326;2023-02-28T01:18:56;-1.50;99.90
21298;DHT22;10808;48.010;11.326;2023-02-28T01:21:23;-1.60;99.90
21298;DHT22;10808;48.010;11.326;2023-02-28T01:23:49;-1.50;99.90
21298;DHT22;10808;48.010;11.326;2023-02-28T01:26:20;-1.60;99.90
21298;DHT22;10808;48.010;11.326;2023-02-28T01:28:47;-1.60;99.90
21298;DHT22;10808;48.010;11.326;2023-02-28T01:31:13;-1.70;99.90
21298;DHT22;10808;48.010;11.326;2023-02-28T01:33:39;-1.70;99.90
21298;DHT22;10808;48.010;11.326;2023-02-28T01:38:33;-1.60;99.90
21298;DHT22;10808;48.010;11.326;2023-02-28T01:41:01;-1.60;99.90
21298;DHT22;10808;48.010;11.326;2023-02-28T01:43:29;-1.60;99.90
21298;DHT22;10808;48.010;11.326;2023-02-28T01:45:56;-1.60;99.90
21298;DHT22;10808;48.010;11.326;2023-02-28T01:48:26;-1.60;99.90
21298;DHT22;10808;48.010;11.326;2023-02-28T01:50:54;-1.70;99.90
21298;DHT22;10808;48.010;11.326;2023-02-28T01:53:29;-1.70;99.90
21298;DHT22;10808;48.010;11.326;2023-02-28T01:55:57;-1.70;99.90
21298;DHT22;10808;48.010;11.326;2023-02-28T01:58:24;-1.70;99.90
21298;DHT22;10808;48.010;11.326;2023-02-28T02:00:50;-1.80;99.90
21298;DHT22;10808;48.010;11.326;2023-02-28T02:03:18;-1.80;99.90
21298;DHT22;10808;48.010;11.326;2023-02-28T02:05:46;-1.80;99.90
21298;DHT22;10808;48.010;11.326;2023-02-28T02:08:21;-1.80;99.90
21298;DHT22;10808;48.010;11.326;2023-02-28T02:10:53;-1.80;99.90
21298;DHT22;10808;48.010;11.326;2023-02-28T02:13:44;-1.80;99.90
21298;DHT22;10808;48.010;11.326;2023-02-28T02:16:41;-1.90;99.90
21298;DHT22;10808;48.010;11.326;2023-02-28T02:19:33;-1.90;99.90
21298;DHT22;10808;48.010;11.326;2023-02-28T02:36:28;-2.10;99.90
21298;DHT22;10808;48.010;11.326;2023-02-28T02:39:08;-2.10;99.90
21298;DHT22;10808;48.010;11.326;2023-02-28T02:44:24;-2.10;99.90
21298;DHT22;10808;48.010;11.326;2023-02-28T02:46:58;-2.10;99.90
21298;DHT22;10808;48.010;11.326;2023-02-28T02:49:30;-2.10;99.90
21298;DHT22;10808;48.010;11.326;2023-02-28T02:52:00;-2.10;99.90
21298;DHT22;10808;48.010;11.326;2023-02-28T02:54:30;-2.20;99.90
21298;DHT22;10808;48.010;11.326;2023-02-28T02:57:03;-2.10;99.90
21298;DHT22;10808;48.010;11.326;2023-02-28T02:59:30;-2.20;99.90
21298;DHT22;10808;48.010;11.326;2023-02-28T03:02:00;-2.20;99.90
21298;DHT22;10808;48.010;11.326;2023-02-28T03:04:33;-2.20;99.90
21298;DHT22;10808;48.010;11.326;2023-02-28T03:07:00;-2.20;99.90
21298;DHT22;10808;48.010;11.326;2023-02-28T03:09:27;-2.30;99.90
21298;DHT22;10808;48.010;11.326;2023-02-28T03:11:55;-2.20;99.90
21298;DHT22;10808;48.010;11.326;2023-02-28T03:22:23;-2.30;99.90
21298;DHT22;10808;48.010;11.326;2023-02-28T03:25:16;-2.30;99.90
21298;DHT22;10808;48.010;11.326;2023-02-28T03:30:32;-2.30;99.90
21298;DHT22;10808;48.010;11.326;2023-02-28T03:33:16;-2.30;99.90
21298;DHT22;10808;48.010;11.326;2023-02-28T03:35:48;-2.40;99.90
21298;DHT22;10808;48.010;11.326;2023-02-28T03:41:00;-2.40;99.90
21298;DHT22;10808;48.010;11.326;2023-02-28T03:43:33;-2.40;99.90
21298;DHT22;10808;48.010;11.326;2023-02-28T03:46:04;-2.40;99.90
21298;DHT22;10808;48.010;11.326;2023-02-28T03:48:43;-2.50;99.90
21298;DHT22;10808;48.010;11.326;2023-02-28T03:51:14;-2.50;99.90
21298;DHT22;10808;48.010;11.326;2023-02-28T03:53:51;-2.40;99.90
21298;DHT22;10808;48.010;11.326;2023-02-28T03:56:30;-2.40;99.90
21298;DHT22;10808;48.010;11.326;2023-02-28T04:01:36;-2.50;99.90
21298;DHT22;10808;48.010;11.326;2023-02-28T04:04:04;-2.50;99.90
21298;DHT22;10808;48.010;11.326;2023-02-28T04:06:32;-2.50;99.90
21298;DHT22;10808;48.010;11.326;2023-02-28T04:08:58;-2.40;99.90
21298;DHT22;10808;48.010;11.326;2023-02-28T04:11:37;-2.50;99.90
21298;DHT22;10808;48.010;11.326;2023-02-28T04:14:05;-2.50;99.90
21298;DHT22;10808;48.010;11.326;2023-02-28T04:16:32;-2.50;99.90
21298;DHT22;10808;48.010;11.326;2023-02-28T04:18:58;-2.50;99.90
21298;DHT22;10808;48.010;11.326;2023-02-28T04:21:50;-2.50;99.90
21298;DHT22;10808;48.010;11.326;2023-02-28T04:24:22;-2.60;99.90
21298;DHT22;10808;48.010;11.326;2023-02-28T04:26:51;-2.60;99.90
21298;DHT22;10808;48.010;11.326;2023-02-28T04:29:25;-2.60;99.90
21298;DHT22;10808;48.010;11.326;2023-02-28T04:31:52;-2.60;99.90
21298;DHT22;10808;48.010;11.326;2023-02-28T04:34:26;-2.60;99.90
21298;DHT22;10808;48.010;11.326;2023-02-28T04:36:52;-2.60;99.90
21298;DHT22;10808;48.010;11.326;2023-02-28T04:39:22;-2.60;99.90
21298;DHT22;10808;48.010;11.326;2023-02-28T04:41:48;-2.70;99.90
21298;DHT22;10808;48.010;11.326;2023-02-28T04:44:15;-2.70;99.90
21298;DHT22;10808;48.010;11.326;2023-02-28T04:46:42;-2.70;99.90
21298;DHT22;10808;48.010;11.326;2023-02-28T04:49:11;-2.60;99.90
21298;DHT22;10808;48.010;11.326;2023-02-28T04:51:37;-2.70;99.90
21298;DHT22;10808;48.010;11.326;2023-02-28T04:54:04;-2.70;99.90
21298;DHT22;10808;48.010;11.326;2023-02-28T04:56:30;-2.60;99.90
21298;DHT22;10808;48.010;11.326;2023-02-28T04:58:56;-2.60;99.90
21298;DHT22;10808;48.010;11.326;2023-02-28T05:03:51;-2.60;99.90
21298;DHT22;10808;48.010;11.326;2023-02-28T05:06:21;-2.60;99.90
21298;DHT22;10808;48.010;11.326;2023-02-28T05:08:47;-2.60;99.90
21298;DHT22;10808;48.010;11.326;2023-02-28T05:11:22;-2.60;99.90
21298;DHT22;10808;48.010;11.326;2023-02-28T05:13:50;-2.60;99.90
21298;DHT22;10808;48.010;11.326;2023-02-28T05:16:16;-2.60;99.90
21298;DHT22;10808;48.010;11.326;2023-02-28T05:18:42;-2.60;99.90
21298;DHT22;10808;48.010;11.326;2023-02-28T05:21:41;-2.60;99.90
21298;DHT22;10808;48.010;11.326;2023-02-28T05:24:13;-2.50;99.90
21298;DHT22;10808;48.010;11.326;2023-02-28T05:26:41;-2.50;99.90
21298;DHT22;10808;48.010;11.326;2023-02-28T05:29:08;-2.50;99.90
21298;DHT22;10808;48.010;11.326;2023-02-28T05:31:35;-2.50;99.90
21298;DHT22;10808;48.010;11.326;2023-02-28T05:34:01;-2.40;99.90
21298;DHT22;10808;48.010;11.326;2023-02-28T05:36:27;-2.40;99.90
21298;DHT22;10808;48.010;11.326;2023-02-28T05:38:53;-2.40;99.90
21298;DHT22;10808;48.010;11.326;2023-02-28T05:41:20;-2.40;99.90
21298;DHT22;10808;48.010;11.326;2023-02-28T05:43:47;-2.40;99.90
21298;DHT22;10808;48.010;11.326;2023-02-28T05:46:13;-2.40;99.90
21298;DHT22;10808;48.010;11.326;2023-02-28T05:48:41;-2.40;99.90
21298;DHT22;10808;48.010;11.326;2023-02-28T05:51:08;-2.40;99.90
21298;DHT22;10808;48.010;11.326;2023-02-28T05:53:35;-2.40;99.90
21298;DHT22;10808;48.010;11.326;2023-02-28T05:56:01;-2.40;99.90
21298;DHT22;10808;48.010;11.326;2023-02-28T05:58:27;-2.30;99.90
21298;DHT22;10808;48.010;11.326;2023-02-28T06:00:57;-2.30;99.90
21298;DHT22;10808;48.010;11.326;2023-02-28T06:03:24;-2.30;99.90
21298;DHT22;10808;48.010;11.326;2023-02-28T06:05:51;-2.30;99.90
21298;DHT22;10808;48.010;11.326;2023-02-28T06:08:17;-2.30;99.90
21298;DHT22;10808;48.010;11.326;2023-02-28T06:10:44;-2.30;99.90
21298;DHT22;10808;48.010;11.326;2023-02-28T06:13:11;-2.30;99.90
21298;DHT22;10808;48.010;11.326;2023-02-28T06:15:38;-2.20;99.90
21298;DHT22;10808;48.010;11.326;2023-02-28T06:18:04;-2.20;99.90
21298;DHT22;10808;48.010;11.326;2023-02-28T06:20:31;-2.20;99.90
21298;DHT22;10808;48.010;11.326;2023-02-28T06:22:57;-2.20;99.90
21298;DHT22;10808;48.010;11.326;2023-02-28T06:25:27;-2.20;99.90
21298;DHT22;10808;48.010;11.326;2023-02-28T06:27:54;-2.10;99.90
21298;DHT22;10808;48.010;11.326;2023-02-28T06:30:20;-2.10;99.90
21298;DHT22;10808;48.010;11.326;2023-02-28T06:32:50;-2.10;99.90
21298;DHT22;10808;48.010;11.326;2023-02-28T06:35:17;-2.00;99.90
21298;DHT22;10808;48.010;11.326;2023-02-28T06:37:43;-2.00;99.90
21298;DHT22;10808;48.010;11.326;2023-02-28T06:40:10;-2.00;99.90
21298;DHT22;10808;48.010;11.326;2023-02-28T06:42:37;-2.00;99.90
21298;DHT22;10808;48.010;11.326;2023-02-28T06:45:03;-1.90;99.90
21298;DHT22;10808;48.010;11.326;2023-02-28T06:47:36;-1.90;99.90
21298;DHT22;10808;48.010;11.326;2023-02-28T06:50:03;-1.90;99.90
21298;DHT22;10808;48.010;11.326;2023-02-28T06:52:29;-1.90;99.90
21298;DHT22;10808;48.010;11.326;2023-02-28T06:54:55;-1.80;99.90
21298;DHT22;10808;48.010;11.326;2023-02-28T06:57:28;-1.80;99.90
21298;DHT22;10808;48.010;11.326;2023-02-28T07:00:00;-1.70;99.90
21298;DHT22;10808;48.010;11.326;2023-02-28T07:02:27;-1.70;99.90
21298;DHT22;10808;48.010;11.326;2023-02-28T07:04:53;-1.70;99.90
21298;DHT22;10808;48.010;11.326;2023-02-28T07:07:19;-1.70;99.90
21298;DHT22;10808;48.010;11.326;2023-02-28T07:09:45;-1.70;99.90
21298;DHT22;10808;48.010;11.326;2023-02-28T07:12:11;-1.70;99.90
21298;DHT22;10808;48.010;11.326;2023-02-28T07:14:37;-1.70;99.90
21298;DHT22;10808;48.010;11.326;2023-02-28T07:17:07;-1.70;99.90
21298;DHT22;10808;48.010;11.326;2023-02-28T07:19:33;-1.70;99.90
21298;DHT22;10808;48.010;11.326;2023-02-28T07:21:59;-1.70;99.90
21298;DHT22;10808;48.010;11.326;2023-02-28T07:24:25;-1.70;99.90
21298;DHT22;10808;48.010;11.326;2023-02-28T07:26:54;-1.60;99.90
21298;DHT22;10808;48.010;11.326;2023-02-28T07:29:20;-1.60;99.90
21298;DHT22;10808;48.010;11.326;2023-02-28T07:31:46;-1.60;99.90
21298;DHT22;10808;48.010;11.326;2023-02-28T07:34:13;-1.50;99.90
21298;DHT22;10808;48.010;11.326;2023-02-28T07:36:39;-1.50;99.90
21298;DHT22;10808;48.010;11.326;2023-02-28T07:39:05;-1.40;99.90
21298;DHT22;10808;48.010;11.326;2023-02-28T07:41:31;-1.40;99.90
21298;DHT22;10808;48.010;11.326;2023-02-28T07:43:59;-1.40;99.90
21298;DHT22;10808;48.010;11.326;2023-02-28T07:46:26;-1.40;99.90
21298;DHT22;10808;48.010;11.326;2023-02-28T07:48:52;-1.30;99.90
21298;DHT22;10808;48.010;11.326;2023-02-28T07:51:21;-1.40;99.90
21298;DHT22;10808;48.010;11.326;2023-02-28T07:53:48;-1.30;99.90
21298;DHT22;10808;48.010;11.326;2023-02-28T07:56:14;-1.20;99.90
21298;DHT22;10808;48.010;11.326;2023-02-28T07:58:40;-1.10;99.90
21298;DHT22;10808;48.010;11.326;2023-02-28T08:01:09;-1.10;99.90
21298;DHT22;10808;48.010;11.326;2023-02-28T08:03:35;-1.10;99.90
21298;DHT22;10808;48.010;11.326;2023-02-28T08:06:06;-1.10;99.90
21298;DHT22;10808;48.010;11.326;2023-02-28T08:08:32;-1.20;99.90
21298;DHT22;10808;48.010;11.326;2023-02-28T08:11:00;-1.20;99.90
21298;DHT22;10808;48.010;11.326;2023-02-28T08:13:27;-1.10;99.90
21298;DHT22;10808;48.010;11.326;2023-02-28T08:15:54;-1.10;99.90
21298;DHT22;10808;48.010;11.326;2023-02-28T08:18:21;-1.00;99.90
21298;DHT22;10808;48.010;11.326;2023-02-28T08:20:47;-1.00;99.90
21298;DHT22;10808;48.010;11.326;2023-02-28T08:23:13;-1.00;99.90
21298;DHT22;10808;48.010;11.326;2023-02-28T08:25:40;-1.00;99.90
21298;DHT22;10808;48.010;11.326;2023-02-28T08:28:06;-1.00;99.90
21298;DHT22;10808;48.010;11.326;2023-02-28T08:30:32;-0.90;99.90
21298;DHT22;10808;48.010;11.326;2023-02-28T08:32:58;-0.90;99.90
21298;DHT22;10808;48.010;11.326;2023-02-28T08:35:24;-0.80;99.90
21298;DHT22;10808;48.010;11.326;2023-02-28T08:37:50;-0.80;99.90
21298;DHT22;10808;48.010;11.326;2023-02-28T08:40:16;-0.70;99.90
21298;DHT22;10808;48.010;11.326;2023-02-28T08:42:45;-0.70;99.90
21298;DHT22;10808;48.010;11.326;2023-02-28T08:45:12;-0.60;99.90
21298;DHT22;10808;48.010;11.326;2023-02-28T08:47:38;-0.60;99.90
21298;DHT22;10808;48.010;11.326;2023-02-28T08:50:05;-0.50;99.90
21298;DHT22;10808;48.010;11.326;2023-02-28T08:52:31;-0.50;99.90
21298;DHT22;10808;48.010;11.326;2023-02-28T08:54:57;-0.40;99.90
21298;DHT22;10808;48.010;11.326;2023-02-28T08:57:23;-0.40;99.90
21298;DHT22;10808;48.010;11.326;2023-02-28T08:59:52;-0.40;99.90
21298;DHT22;10808;48.010;11.326;2023-02-28T09:02:18;-0.30;99.90
21298;DHT22;10808;48.010;11.326;2023-02-28T09:04:44;-0.30;99.90
21298;DHT22;10808;48.010;11.326;2023-02-28T09:07:11;-0.30;99.90
21298;DHT22;10808;48.010;11.326;2023-02-28T09:09:38;-0.40;99.90
21298;DHT22;10808;48.010;11.326;2023-02-28T09:12:23;-0.40;99.90
21298;DHT22;10808;48.010;11.326;2023-02-28T09:14:50;-0.30;99.90
21298;DHT22;10808;48.010;11.326;2023-02-28T09:17:16;-0.30;99.90
21298;DHT22;10808;48.010;11.326;2023-02-28T09:19:43;-0.20;99.90
21298;DHT22;10808;48.010;11.326;2023-02-28T09:22:10;-0.10;99.90
21298;DHT22;10808;48.010;11.326;2023-02-28T09:24:37;-0.10;99.90
21298;DHT22;10808;48.010;11.326;2023-02-28T09:27:04;0.00;99.90
21298;DHT22;10808;48.010;11.326;2023-02-28T09:29:33;0.10;99.90
21298;DHT22;10808;48.010;11.326;2023-02-28T09:32:00;0.10;99.90
21298;DHT22;10808;48.010;11.326;2023-02-28T09:34:26;0.10;99.90
21298;DHT22;10808;48.010;11.326;2023-02-28T09:36:53;0.10;99.90
21298;DHT22;10808;48.010;11.326;2023-02-28T09:39:21;0.10;99.90
21298;DHT22;10808;48.010;11.326;2023-02-28T09:41:50;0.20;99.90
21298;DHT22;10808;48.010;11.326;2023-02-28T09:44:30;0.30;99.90
21298;DHT22;10808;48.010;11.326;2023-02-28T09:50:06;0.50;99.90
21298;DHT22;10808;48.010;11.326;2023-02-28T09:52:36;0.60;99.90
21298;DHT22;10808;48.010;11.326;2023-02-28T09:55:32;0.50;99.90
21298;DHT22;10808;48.010;11.326;2023-02-28T09:58:00;0.60;99.90
21298;DHT22;10808;48.010;11.326;2023-02-28T10:00:32;0.50;99.90
21298;DHT22;10808;48.010;11.326;2023-02-28T10:03:21;0.50;99.90
21298;DHT22;10808;48.010;11.326;2023-02-28T10:05:54;0.50;99.90
21298;DHT22;10808;48.010;11.326;2023-02-28T10:08:30;0.50;99.90
21298;DHT22;10808;48.010;11.326;2023-02-28T10:11:00;0.50;99.90
21298;DHT22;10808;48.010;11.326;2023-02-28T10:22:00;0.60;99.90
21298;DHT22;10808;48.010;11.326;2023-02-28T10:27:21;0.50;99.90
21298;DHT22;10808;48.010;11.326;2023-02-28T10:29:49;0.60;99.90
21298;DHT22;10808;48.010;11.326;2023-02-28T10:32:18;0.60;99.90
21298;DHT22;10808;48.010;11.326;2023-02-28T10:34:57;0.70;99.90
21298;DHT22;10808;48.010;11.326;2023-02-28T10:37:24;0.70;99.90
21298;DHT22;10808;48.010;11.326;2023-02-28T10:39:50;0.70;99.90
21298;DHT22;10808;48.010;11.326;2023-02-28T10:45:17;0.80;99.90
21298;DHT22;10808;48.010;11.326;2023-02-28T10:47:53;0.80;99.90
21298;DHT22;10808;48.010;11.326;2023-02-28T10:55:40;0.90;99.90
21298;DHT22;10808;48.010;11.326;2023-02-28T10:58:25;1.00;99.90
21298;DHT22;10808;48.010;11.326;2023-02-28T11:00:52;1.10;99.90
21298;DHT22;10808;48.010;11.326;2023-02-28T11:05:54;1.20;99.90
21298;DHT22;10808;48.010;11.326;2023-02-28T11:08:21;1.20;99.90
21298;DHT22;10808;48.010;11.326;2023-02-28T11:10:53;1.20;99.90
21298;DHT22;10808;48.010;11.326;2023-02-28T11:13:21;1.30;99.90
21298;DHT22;10808;48.010;11.326;2023-02-28T11:15:59;1.30;99.90
21298;DHT22;10808;48.010;11.326;2023-02-28T11:18:46;1.40;99.90
21298;DHT22;10808;48.010;11.326;2023-02-28T11:21:33;1.40;99.90
21298;DHT22;10808;48.010;11.326;2023-02-28T11:26:56;1.50;99.90
21298;DHT22;10808;48.010;11.326;2023-02-28T11:29:25;1.50;99.90
21298;DHT22;10808;48.010;11.326;2023-02-28T11:32:16;1.60;99.90
21298;DHT22;10808;48.010;11.326;2023-02-28T11:34:43;1.60;99.90
21298;DHT22;10808;48.010;11.326;2023-02-28T11:37:13;1.70;99.90
21298;DHT22;10808;48.010;11.326;2023-02-28T11:39:40;1.80;99.90
21298;DHT22;10808;48.010;11.326;2023-02-28T11:47:38;1.90;99.90
21298;DHT22;10808;48.010;11.326;2023-02-28T11:50:34;2.00;99.90
21298;DHT22;10808;48.010;11.326;2023-02-28T11:56:29;2.10;99.90
21298;DHT22;10808;48.010;11.326;2023-02-28T11:59:29;2.20;99.90
21298;DHT22;10808;48.010;11.326;2023-02-28T12:05:16;2.40;99.90
21298;DHT22;10808;48.010;11.326;2023-02-28T12:11:04;2.40;99.90
21298;DHT22;10808;48.010;11.326;2023-02-28T12:13:52;2.40;99.90
21298;DHT22;10808;48.010;11.326;2023-02-28T12:16:31;2.40;99.90
21298;DHT22;10808;48.010;11.326;2023-02-28T12:22:15;2.40;99.90
21298;DHT22;10808;48.010;11.326;2023-02-28T12:27:17;2.50;99.90
21298;DHT22;10808;48.010;11.326;2023-02-28T12:29:50;2.60;99.90
21298;DHT22;10808;48.010;11.326;2023-02-28T12:32:26;2.60;99.90
21298;DHT22;10808;48.010;11.326;2023-02-28T12:35:11;2.60;99.90
21298;DHT22;10808;48.010;11.326;2023-02-28T12:37:41;2.60;99.90
21298;DHT22;10808;48.010;11.326;2023-02-28T12:40:21;2.60;99.90
21298;DHT22;10808;48.010;11.326;2023-02-28T12:42:59;2.60;99.90
21298;DHT22;10808;48.010;11.326;2023-02-28T12:45:53;2.60;99.90
21298;DHT22;10808;48.010;11.326;2023-02-28T12:48:36;2.60;99.90
21298;DHT22;10808;48.010;11.326;2023-02-28T12:51:05;2.70;99.90
21298;DHT22;10808;48.010;11.326;2023-02-28T12:59:18;3.00;99.90
21298;DHT22;10808;48.010;11.326;2023-02-28T13:05:01;3.10;99.90
21298;DHT22;10808;48.010;11.326;2023-02-28T13:07:46;3.20;99.90
21298;DHT22;10808;48.010;11.326;2023-02-28T13:10:15;3.20;99.90
21298;DHT22;10808;48.010;11.326;2023-02-28T13:12:55;3.20;99.90
21298;DHT22;10808;48.010;11.326;2023-02-28T13:15:28;3.20;99.90
21298;DHT22;10808;48.010;11.326;2023-02-28T13:17:56;3.20;99.90
21298;DHT22;10808;48.010;11.326;2023-02-28T13:20:29;3.40;99.90
21298;DHT22;10808;48.010;11.326;2023-02-28T13:22:59;3.60;99.90
21298;DHT22;10808;48.010;11.326;2023-02-28T13:31:15;4.10;99.90
21298;DHT22;10808;48.010;11.326;2023-02-28T13:38:52;4.70;99.90
21298;DHT22;10808;48.010;11.326;2023-02-28T13:44:06;4.90;99.80
21298;DHT22;10808;48.010;11.326;2023-02-28T13:51:50;5.00;99.50
21298;DHT22;10808;48.010;11.326;2023-02-28T14:02:54;5.30;98.40
21298;DHT22;10808;48.010;11.326;2023-02-28T14:05:24;5.40;98.70
21298;DHT22;10808;48.010;11.326;2023-02-28T14:08:03;5.40;98.60
21298;DHT22;10808;48.010;11.326;2023-02-28T14:10:33;5.40;98.30
21298;DHT22;10808;48.010;11.326;2023-02-28T14:13:58;5.30;98.20
21298;DHT22;10808;48.010;11.326;2023-02-28T14:16:00;5.10;98.60
21298;DHT22;10808;48.010;11.326;2023-02-28T14:18:34;5.10;98.70
21298;DHT22;10808;48.010;11.326;2023-02-28T14:21:11;5.20;99.20
21298;DHT22;10808;48.010;11.326;2023-02-28T14:26:35;5.50;98.50
21298;DHT22;10808;48.010;11.326;2023-02-28T14:34:44;5.80;98.30
21298;DHT22;10808;48.010;11.326;2023-02-28T14:37:20;5.80;98.30
21298;DHT22;10808;48.010;11.326;2023-02-28T14:39:50;6.00;98.30
21298;DHT22;10808;48.010;11.326;2023-02-28T14:42:30;6.10;97.80
21298;DHT22;10808;48.010;11.326;2023-02-28T14:44:56;6.30;98.10
21298;DHT22;10808;48.010;11.326;2023-02-28T14:47:24;6.40;97.50
21298;DHT22;10808;48.010;11.326;2023-02-28T14:49:51;6.50;97.20
21298;DHT22;10808;48.010;11.326;2023-02-28T14:52:21;6.40;97.20
21298;DHT22;10808;48.010;11.326;2023-02-28T14:54:53;6.40;97.50
21298;DHT22;10808;48.010;11.326;2023-02-28T14:57:32;6.30;97.50
21298;DHT22;10808;48.010;11.326;2023-02-28T15:02:37;6.30;97.40
21298;DHT22;10808;48.010;11.326;2023-02-28T15:07:36;6.30;97.10
21298;DHT22;10808;48.010;11.326;2023-02-28T15:10:19;6.20;97.30
21298;DHT22;10808;48.010;11.326;2023-02-28T15:12:56;6.10;97.40
21298;DHT22;10808;48.010;11.326;2023-02-28T15:16:08;6.10;97.70
21298;DHT22;10808;48.010;11.326;2023-02-28T15:18:26;6.00;97.40
21298;DHT22;10808;48.010;11.326;2023-02-28T15:20:53;5.80;97.20
21298;DHT22;10808;48.010;11.326;2023-02-28T15:23:21;5.80;97.60
21298;DHT22;10808;48.010;11.326;2023-02-28T15:25:49;5.80;97.70
21298;DHT22;10808;48.010;11.326;2023-02-28T15:28:18;5.70;97.80
21298;DHT22;10808;48.010;11.326;2023-02-28T15:33:25;5.40;97.70
21298;DHT22;10808;48.010;11.326;2023-02-28T15:36:02;5.30;98.00
21298;DHT22;10808;48.010;11.326;2023-02-28T15:38:29;5.10;97.90
21298;DHT22;10808;48.010;11.326;2023-02-28T15:40:57;5.00;98.00
21298;DHT22;10808;48.010;11.326;2023-02-28T15:43:32;4.80;98.00
21298;DHT22;10808;48.010;11.326;2023-02-28T15:46:09;4.70;98.40
21298;DHT22;10808;48.010;11.326;2023-02-28T15:48:54;4.60;98.40
21298;DHT22;10808;48.010;11.326;2023-02-28T15:51:25;4.50;98.60
21298;DHT22;10808;48.010;11.326;2023-02-28T15:53:59;4.50;98.70
21298;DHT22;10808;48.010;11.326;2023-02-28T15:56:28;4.40;98.80
21298;DHT22;10808;48.010;11.326;2023-02-28T15:58:56;4.40;99.00
21298;DHT22;10808;48.010;11.326;2023-02-28T16:01:29;4.40;99.00
21298;DHT22;10808;48.010;11.326;2023-02-28T16:03:59;4.40;99.10
21298;DHT22;10808;48.010;11.326;2023-02-28T16:07:20;4.50;99.10
21298;DHT22;10808;48.010;11.326;2023-02-28T16:09:21;4.50;99.20
21298;DHT22;10808;48.010;11.326;2023-02-28T16:11:49;4.50;99.20
21298;DHT22;10808;48.010;11.326;2023-02-28T16:14:19;4.50;99.10
21298;DHT22;10808;48.010;11.326;2023-02-28T16:16:48;4.40;99.10
21298;DHT22;10808;48.010;11.326;2023-02-28T16:19:15;4.40;99.00
21298;DHT22;10808;48.010;11.326;2023-02-28T16:21:41;4.20;99.10
21298;DHT22;10808;48.010;11.326;2023-02-28T16:24:07;4.30;99.60
21298;DHT22;10808;48.010;11.326;2023-02-28T16:26:33;4.20;99.70
21298;DHT22;10808;48.010;11.326;2023-02-28T16:29:03;4.20;99.60
21298;DHT22;10808;48.010;11.326;2023-02-28T16:31:29;4.10;99.40
21298;DHT22;10808;48.010;11.326;2023-02-28T16:33:57;4.10;99.60
21298;DHT22;10808;48.010;11.326;2023-02-28T16:36:24;4.00;99.60
21298;DHT22;10808;48.010;11.326;2023-02-28T16:38:54;4.00;99.70
21298;DHT22;10808;48.010;11.326;2023-02-28T16:41:24;3.90;99.90
21298;DHT22;10808;48.010;11.326;2023-02-28T16:43:52;3.90;99.90
21298;DHT22;10808;48.010;11.326;2023-02-28T16:46:19;3.90;99.90
21298;DHT22;10808;48.010;11.326;2023-02-28T16:48:47;3.80;99.90
21298;DHT22;10808;48.010;11.326;2023-02-28T16:51:17;3.70;99.90
21298;DHT22;10808;48.010;11.326;2023-02-28T16:53:44;3.70;99.90
21298;DHT22;10808;48.010;11.326;2023-02-28T16:56:19;3.70;99.90
21298;DHT22;10808;48.010;11.326;2023-02-28T16:58:46;3.60;99.90
21298;DHT22;10808;48.010;11.326;2023-02-28T17:01:13;3.60;99.90
21298;DHT22;10808;48.010;11.326;2023-02-28T17:03:39;3.50;99.90
21298;DHT22;10808;48.010;11.326;2023-02-28T17:06:12;3.50;99.90
21298;DHT22;10808;48.010;11.326;2023-02-28T17:08:41;3.40;99.90
21298;DHT22;10808;48.010;11.326;2023-02-28T17:11:08;3.40;99.90
21298;DHT22;10808;48.010;11.326;2023-02-28T17:13:34;3.30;99.90
21298;DHT22;10808;48.010;11.326;2023-02-28T17:16:01;3.30;99.90
21298;DHT22;10808;48.010;11.326;2023-02-28T17:18:28;3.30;99.90
21298;DHT22;10808;48.010;11.326;2023-02-28T17:21:02;3.20;99.90
21298;DHT22;10808;48.010;11.326;2023-02-28T17:23:29;3.20;99.90
21298;DHT22;10808;48.010;11.326;2023-02-28T17:25:55;3.20;99.90
21298;DHT22;10808;48.010;11.326;2023-02-28T17:28:21;3.20;99.90
21298;DHT22;10808;48.010;11.326;2023-02-28T17:30:47;3.10;99.90
21298;DHT22;10808;48.010;11.326;2023-02-28T17:33:15;3.10;99.90
21298;DHT22;10808;48.010;11.326;2023-02-28T17:35:41;3.10;99.90
21298;DHT22;10808;48.010;11.326;2023-02-28T17:38:18;3.00;99.90
21298;DHT22;10808;48.010;11.326;2023-02-28T17:40:45;3.00;99.90
21298;DHT22;10808;48.010;11.326;2023-02-28T17:43:11;2.90;99.90
21298;DHT22;10808;48.010;11.326;2023-02-28T17:45:37;2.90;99.90
21298;DHT22;10808;48.010;11.326;2023-02-28T17:48:03;2.90;99.90
21298;DHT22;10808;48.010;11.326;2023-02-28T17:50:29;2.90;99.90
21298;DHT22;10808;48.010;11.326;2023-02-28T17:52:57;2.80;99.90
21298;DHT22;10808;48.010;11.326;2023-02-28T17:55:24;2.80;99.90
21298;DHT22;10808;48.010;11.326;2023-02-28T17:57:50;2.80;99.90
21298;DHT22;10808;48.010;11.326;2023-02-28T18:00:16;2.80;99.90